createdAt,value
2023-07-09T00:02:01.907Z,54.23
2023-07-09T00:04:30.921Z,54.59
2023-07-09T00:07:03.319Z,54.78
2023-07-09T00:09:32.566Z,55.85
2023-07-09T00:12:01.360Z,55.61
2023-07-09T00:14:31.453Z,55.42
2023-07-09T00:17:00.172Z,55.60
2023-07-09T00:19:30.527Z,55.71
2023-07-09T00:21:59.331Z,55.89
2023-07-09T00:24:28.149Z,56.92
2023-07-09T00:26:57.047Z,57.55
2023-07-09T00:29:25.798Z,56.31
2023-07-09T00:31:56.022Z,56.34
2023-07-09T00:34:26.099Z,56.26
2023-07-09T00:36:54.883Z,56.28
2023-07-09T00:39:24.737Z,56.44
2023-07-09T00:41:53.479Z,56.87
2023-07-09T00:44:30.141Z,56.72
2023-07-09T00:47:22.407Z,56.78
2023-07-09T00:49:51.651Z,56.97
2023-07-09T00:52:25.859Z,56.89
2023-07-09T00:54:55.007Z,57.18
2023-07-09T00:57:25.911Z,57.22
2023-07-09T00:59:58.068Z,57.23
2023-07-09T01:02:30.657Z,58.72
2023-07-09T01:05:02.499Z,58.81
2023-07-09T01:07:32.122Z,58.01
2023-07-09T01:10:01.145Z,57.90
2023-07-09T01:12:31.587Z,58.25
2023-07-09T01:15:01.239Z,58.21
2023-07-09T01:17:31.541Z,59.14
2023-07-09T01:20:00.442Z,58.58
2023-07-09T01:22:31.142Z,58.51
2023-07-09T01:25:03.208Z,58.77
2023-07-09T01:27:34.471Z,59.17
2023-07-09T01:30:07.377Z,59.97
2023-07-09T01:32:36.387Z,60.71
2023-07-09T01:35:09.170Z,60.27
2023-07-09T01:37:39.852Z,59.49
2023-07-09T01:40:24.419Z,59.64
2023-07-09T01:45:53.220Z,60.10
2023-07-09T01:48:24.476Z,60.08
2023-07-09T01:50:53.567Z,60.33
2023-07-09T01:53:25.872Z,60.43
2023-07-09T01:55:55.644Z,60.61
2023-07-09T01:58:25.917Z,61.00
2023-07-09T02:00:57.989Z,60.97
2023-07-09T02:03:27.044Z,60.84
2023-07-09T02:05:56.220Z,61.19
2023-07-09T02:08:26.343Z,60.91
2023-07-09T02:10:55.175Z,61.06
2023-07-09T02:13:23.960Z,61.01
2023-07-09T02:15:52.765Z,61.34
2023-07-09T02:18:21.558Z,61.73
2023-07-09T02:20:50.309Z,62.47
2023-07-09T02:23:24.664Z,62.07
2023-07-09T02:25:58.077Z,62.50
2023-07-09T02:28:26.856Z,63.09
2023-07-09T02:30:55.768Z,62.53
2023-07-09T02:33:24.701Z,62.41
2023-07-09T02:35:53.388Z,62.82
2023-07-09T02:38:22.207Z,62.32
2023-07-09T02:40:50.947Z,62.55
2023-07-09T02:43:21.002Z,63.29
2023-07-09T02:45:49.759Z,63.67
2023-07-09T02:48:21.689Z,64.69
2023-07-09T02:50:50.458Z,64.65
2023-07-09T02:53:19.172Z,65.93
2023-07-09T02:55:47.953Z,65.72
2023-07-09T02:58:17.441Z,65.78
2023-07-09T03:00:53.939Z,66.31
2023-07-09T03:03:23.033Z,66.53
2023-07-09T03:05:52.001Z,66.51
2023-07-09T03:08:20.635Z,65.78
2023-07-09T03:10:49.294Z,65.70
2023-07-09T03:13:17.968Z,66.59
2023-07-09T03:15:57.513Z,65.42
2023-07-09T03:18:26.654Z,65.63
2023-07-09T03:20:55.362Z,65.61
2023-07-09T03:23:24.085Z,65.50
2023-07-09T03:25:52.884Z,65.48
2023-07-09T03:28:21.751Z,65.62
2023-07-09T03:30:51.017Z,65.57
2023-07-09T03:33:21.050Z,65.30
2023-07-09T03:35:49.780Z,65.93
2023-07-09T03:38:18.526Z,66.24
2023-07-09T03:40:47.567Z,66.61
2023-07-09T03:43:16.293Z,66.52
2023-07-09T03:45:46.487Z,66.93
2023-07-09T03:48:17.236Z,66.33
2023-07-09T03:50:48.963Z,67.04
2023-07-09T03:53:19.034Z,66.71
2023-07-09T03:55:49.012Z,67.14
2023-07-09T03:58:20.108Z,67.82
2023-07-09T04:00:49.096Z,68.35
2023-07-09T04:03:18.081Z,67.84
2023-07-09T04:05:50.044Z,68.77
2023-07-09T04:08:18.716Z,67.61
2023-07-09T04:10:47.520Z,67.83
2023-07-09T04:13:16.230Z,69.06
2023-07-09T04:15:46.189Z,68.32
2023-07-09T04:18:14.855Z,68.63
2023-07-09T04:20:43.494Z,68.39
2023-07-09T04:23:17.333Z,68.10
2023-07-09T04:25:46.058Z,67.57
2023-07-09T04:28:14.769Z,68.43
2023-07-09T04:30:49.090Z,67.56
2023-07-09T04:33:20.601Z,67.30
2023-07-09T04:35:50.435Z,67.16
2023-07-09T04:38:20.763Z,67.37
2023-07-09T04:40:49.372Z,67.56
2023-07-09T04:43:18.023Z,67.39
2023-07-09T04:45:46.699Z,67.43
2023-07-09T04:48:15.392Z,66.38
2023-07-09T04:50:44.205Z,67.00
2023-07-09T04:53:13.007Z,67.32
2023-07-09T04:55:43.035Z,67.21
2023-07-09T04:58:11.734Z,67.29
2023-07-09T05:00:40.416Z,67.56
2023-07-09T05:03:09.133Z,67.55
2023-07-09T05:05:37.856Z,67.34
2023-07-09T05:08:06.548Z,66.79
2023-07-09T05:10:35.232Z,67.91
2023-07-09T05:13:05.205Z,68.05
2023-07-09T05:15:36.921Z,67.25
2023-07-09T05:18:05.768Z,66.02
2023-07-09T05:20:34.434Z,65.18
2023-07-09T05:23:03.229Z,65.83
2023-07-09T05:25:32.062Z,67.51
2023-07-09T05:28:00.807Z,64.66
2023-07-09T05:30:30.899Z,64.30
2023-07-09T05:33:00.433Z,63.72
2023-07-09T05:35:29.520Z,63.82
2023-07-09T05:37:58.353Z,63.64
2023-07-09T05:40:27.156Z,65.26
2023-07-09T05:42:55.864Z,66.04
2023-07-09T05:45:24.686Z,65.70
2023-07-09T05:47:54.722Z,62.85
2023-07-09T05:50:23.560Z,62.65
2023-07-09T05:52:52.334Z,62.75
2023-07-09T05:55:24.126Z,64.65
2023-07-09T05:57:52.804Z,63.72
2023-07-09T06:00:21.747Z,63.30
2023-07-09T06:02:50.523Z,60.85
2023-07-09T06:05:21.705Z,60.22
2023-07-09T06:07:50.588Z,61.67
2023-07-09T06:10:19.280Z,61.80
2023-07-09T06:12:47.980Z,58.82
2023-07-09T06:15:16.917Z,59.03
2023-07-09T06:17:45.687Z,56.07
2023-07-09T06:20:14.516Z,57.61
2023-07-09T06:22:44.592Z,58.38
2023-07-09T06:25:14.144Z,55.59
2023-07-09T06:27:42.869Z,58.20
2023-07-09T06:30:12.281Z,55.78
2023-07-09T06:32:41.032Z,53.78
2023-07-09T06:35:15.036Z,54.82
2023-07-09T06:37:45.107Z,60.88
2023-07-09T06:40:14.675Z,54.65
2023-07-09T06:42:43.446Z,54.98
2023-07-09T06:45:12.472Z,53.80
2023-07-09T06:47:41.257Z,55.64
2023-07-09T06:50:10.676Z,52.45
2023-07-09T06:52:39.424Z,50.95
2023-07-09T06:55:10.206Z,51.34
2023-07-09T06:57:39.473Z,54.19
2023-07-09T07:00:09.607Z,47.76
2023-07-09T07:02:43.302Z,48.19
2023-07-09T07:05:12.160Z,47.13
2023-07-09T07:07:40.947Z,45.95
2023-07-09T07:10:11.605Z,46.38
2023-07-09T07:12:48.693Z,49.55
2023-07-09T07:15:19.158Z,44.96
2023-07-09T07:17:48.077Z,45.74
2023-07-09T07:20:17.854Z,48.23
2023-07-09T07:22:46.765Z,43.77
2023-07-09T07:25:17.096Z,45.37
2023-07-09T07:27:45.872Z,43.46
2023-07-09T07:30:15.124Z,43.03
2023-07-09T07:32:46.690Z,44.02
2023-07-09T07:35:16.081Z,44.19
2023-07-09T07:37:45.030Z,43.49
2023-07-09T07:40:14.036Z,43.21
2023-07-09T07:42:44.094Z,41.41
2023-07-09T07:45:12.954Z,41.33
2023-07-09T07:47:42.163Z,42.04
2023-07-09T07:50:11.422Z,42.56
2023-07-09T07:52:40.150Z,42.56
2023-07-09T07:55:12.375Z,40.60
2023-07-09T07:57:45.947Z,42.21
2023-07-09T08:00:15.730Z,41.75
2023-07-09T08:02:44.564Z,39.02
2023-07-09T08:05:13.347Z,38.60
2023-07-09T08:07:42.184Z,39.71
2023-07-09T08:10:11.284Z,38.80
2023-07-09T08:12:40.145Z,39.47
2023-07-09T08:15:11.932Z,40.09
2023-07-09T08:17:40.867Z,37.84
2023-07-09T08:20:10.887Z,38.40
2023-07-09T08:22:41.050Z,36.71
2023-07-09T08:25:10.657Z,37.17
2023-07-09T08:27:39.556Z,37.61
2023-07-09T08:30:11.293Z,38.20
2023-07-09T08:32:40.405Z,35.41
2023-07-09T08:37:43.243Z,38.07
2023-07-09T08:40:14.450Z,35.85
2023-07-09T08:42:59.934Z,34.77
2023-07-09T08:45:40.032Z,34.89
2023-07-09T08:48:11.424Z,36.35
2023-07-09T08:50:42.094Z,36.72
2023-07-09T08:53:16.140Z,34.65
2023-07-09T08:55:45.537Z,35.54
2023-07-09T08:58:17.688Z,33.04
2023-07-09T09:00:55.504Z,33.65
2023-07-09T09:03:32.155Z,35.14
2023-07-09T09:06:00.864Z,33.49
2023-07-09T09:08:38.388Z,34.43
2023-07-09T09:11:15.740Z,33.37
2023-07-09T09:13:49.038Z,32.15
2023-07-09T09:16:27.672Z,32.98
2023-07-09T09:18:58.166Z,32.74
2023-07-09T09:21:31.807Z,31.99
2023-07-09T09:24:11.494Z,33.91
2023-07-09T09:26:41.289Z,32.38
2023-07-09T09:29:14.005Z,33.35
2023-07-09T09:31:46.477Z,33.40
2023-07-09T09:34:22.500Z,31.24
2023-07-09T09:36:56.848Z,31.63
2023-07-09T09:39:26.332Z,33.44
2023-07-09T09:41:57.118Z,32.73
2023-07-09T09:44:28.873Z,29.90
2023-07-09T09:47:01.181Z,29.50
2023-07-09T09:49:30.443Z,29.70
2023-07-09T09:52:04.747Z,31.13
2023-07-09T09:54:33.756Z,32.80
2023-07-09T09:57:02.536Z,30.64
2023-07-09T09:59:34.208Z,30.98
2023-07-09T10:02:17.911Z,26.95
2023-07-09T10:04:47.498Z,27.79
2023-07-09T10:07:23.165Z,28.79
2023-07-09T10:09:54.089Z,27.57
2023-07-09T10:12:42.380Z,28.80
2023-07-09T10:15:22.822Z,26.76
2023-07-09T10:17:58.335Z,23.99
2023-07-09T10:20:33.121Z,26.93
2023-07-09T10:23:05.600Z,24.26
2023-07-09T10:25:40.912Z,27.56
2023-07-09T10:28:29.892Z,24.52
2023-07-09T10:33:44.075Z,26.38
2023-07-09T10:36:23.523Z,26.75
2023-07-09T10:38:56.640Z,29.18
2023-07-09T10:41:27.755Z,23.01
2023-07-09T10:44:01.548Z,22.92
2023-07-09T10:46:34.379Z,23.52
2023-07-09T10:49:07.457Z,23.10
2023-07-09T10:51:40.301Z,23.18
2023-07-09T10:54:19.024Z,23.52
2023-07-09T10:59:44.298Z,24.35
2023-07-09T11:02:21.055Z,26.49
2023-07-09T11:04:54.340Z,24.85
2023-07-09T11:07:28.023Z,24.50
2023-07-09T11:09:58.181Z,21.59
2023-07-09T11:12:31.446Z,21.52
2023-07-09T11:15:04.087Z,22.42
2023-07-09T11:17:34.774Z,20.81
2023-07-09T11:23:20.588Z,21.28
2023-07-09T11:25:50.973Z,25.49
2023-07-09T11:28:35.681Z,20.57
2023-07-09T11:31:08.140Z,20.40
2023-07-09T11:33:47.415Z,19.11
2023-07-09T11:36:27.335Z,20.48
2023-07-09T11:38:56.257Z,18.56
2023-07-09T11:41:30.180Z,18.36
2023-07-09T11:44:07.882Z,18.52
2023-07-09T11:46:41.896Z,21.34
2023-07-09T11:49:11.992Z,20.46
2023-07-09T11:51:45.535Z,18.32
2023-07-09T11:54:14.672Z,20.39
2023-07-09T11:56:43.812Z,20.21
2023-07-09T11:59:13.719Z,19.50
2023-07-09T12:04:38.495Z,23.42
2023-07-09T12:07:08.715Z,20.76
2023-07-09T12:09:42.716Z,23.17
2023-07-09T12:12:20.428Z,20.24
2023-07-09T12:14:49.426Z,18.89
2023-07-09T12:17:18.477Z,22.18
2023-07-09T12:19:47.250Z,20.70
2023-07-09T12:22:22.009Z,20.74
2023-07-09T12:24:52.172Z,21.36
2023-07-09T12:27:23.702Z,19.68
2023-07-09T12:29:54.450Z,19.21
2023-07-09T12:32:24.059Z,23.86
2023-07-09T12:34:54.136Z,22.83
2023-07-09T12:37:24.889Z,20.72
2023-07-09T12:39:54.199Z,19.46
2023-07-09T12:42:27.466Z,20.46
2023-07-09T12:44:56.409Z,21.69
2023-07-09T12:47:26.939Z,23.34
2023-07-09T12:50:03.204Z,19.18
2023-07-09T12:52:33.350Z,20.08
2023-07-09T12:55:04.556Z,19.56
2023-07-09T12:57:34.785Z,20.44
2023-07-09T13:00:03.525Z,21.72
2023-07-09T13:02:32.567Z,20.79
2023-07-09T13:05:03.072Z,21.83
2023-07-09T13:07:36.542Z,21.56
2023-07-09T13:10:17.807Z,23.07
2023-07-09T13:12:48.805Z,22.68
2023-07-09T13:15:40.899Z,22.19
2023-07-09T13:18:12.012Z,21.83
2023-07-09T13:20:43.281Z,21.23
2023-07-09T13:23:14.435Z,21.73
2023-07-09T13:26:08.172Z,21.80
2023-07-09T13:28:37.119Z,20.92
2023-07-09T13:31:13.388Z,21.37
2023-07-09T13:33:42.265Z,21.88
2023-07-09T13:36:11.191Z,20.83
2023-07-09T13:38:42.350Z,20.78
2023-07-09T13:41:16.163Z,22.26
2023-07-09T13:43:47.092Z,23.03
2023-07-09T13:46:16.162Z,21.52
2023-07-09T13:48:47.133Z,23.96
2023-07-09T13:51:18.647Z,23.17
2023-07-09T13:53:49.058Z,24.57
2023-07-09T13:56:17.814Z,23.14
2023-07-09T13:58:46.556Z,21.95
2023-07-09T14:01:17.279Z,21.93
2023-07-09T14:03:46.221Z,24.57
2023-07-09T14:06:20.402Z,23.57
2023-07-09T14:08:50.801Z,22.66
2023-07-09T14:11:19.821Z,23.58
2023-07-09T14:13:48.734Z,22.71
2023-07-09T14:16:17.564Z,23.32
2023-07-09T14:18:46.333Z,23.89
2023-07-09T14:21:16.001Z,27.74
2023-07-09T14:23:44.940Z,24.66
2023-07-09T14:26:15.152Z,23.93
2023-07-09T14:28:43.978Z,24.06
2023-07-09T14:31:21.551Z,24.87
2023-07-09T14:33:50.456Z,23.68
2023-07-09T14:36:19.497Z,24.72
2023-07-09T14:38:48.977Z,23.79
2023-07-09T14:41:24.164Z,23.66
2023-07-09T14:43:53.161Z,25.13
2023-07-09T14:46:27.855Z,24.03
2023-07-09T14:48:56.678Z,23.71
2023-07-09T14:51:25.855Z,24.29
2023-07-09T14:56:48.769Z,24.02
2023-07-09T14:59:18.681Z,23.88
2023-07-09T15:01:47.928Z,22.95
2023-07-09T15:07:26.214Z,22.15
2023-07-09T15:09:55.054Z,21.64
2023-07-09T15:12:28.378Z,21.41
2023-07-09T15:15:04.309Z,22.41
2023-07-09T15:17:33.601Z,22.16
2023-07-09T15:20:02.477Z,23.07
2023-07-09T15:22:34.282Z,22.68
2023-07-09T15:27:58.707Z,22.53
2023-07-09T15:30:29.467Z,22.87
2023-07-09T15:33:05.154Z,23.45
2023-07-09T15:35:37.926Z,23.88
2023-07-09T15:38:22.175Z,28.68
2023-07-09T15:40:51.229Z,22.29
2023-07-09T15:43:21.501Z,22.51
2023-07-09T15:45:52.831Z,23.10
2023-07-09T15:48:24.696Z,23.46
2023-07-09T15:50:53.811Z,27.01
2023-07-09T15:53:23.204Z,24.22
2023-07-09T15:55:55.844Z,22.94
2023-07-09T15:58:29.121Z,23.10
2023-07-09T16:00:57.865Z,24.41
2023-07-09T16:03:26.720Z,22.71
2023-07-09T16:05:55.517Z,22.58
2023-07-09T16:08:24.330Z,24.81
2023-07-09T16:10:53.058Z,22.66
2023-07-09T16:13:23.685Z,23.57
2023-07-09T16:15:53.921Z,25.50
2023-07-09T16:18:22.993Z,25.63
2023-07-09T16:20:52.103Z,25.52
2023-07-09T16:23:24.154Z,27.32
2023-07-09T16:25:53.284Z,23.78
2023-07-09T16:28:22.513Z,23.28
2023-07-09T16:30:52.289Z,23.22
2023-07-09T16:33:22.833Z,23.82
2023-07-09T16:35:53.464Z,23.77
2023-07-09T16:38:22.186Z,23.37
2023-07-09T16:40:50.904Z,23.26
2023-07-09T16:43:22.584Z,22.61
2023-07-09T16:45:51.662Z,22.89
2023-07-09T16:48:24.103Z,23.02
2023-07-09T16:50:56.078Z,23.23
2023-07-09T16:53:25.125Z,25.09
2023-07-09T16:55:53.905Z,23.98
2023-07-09T16:58:30.479Z,25.93
2023-07-09T17:00:59.593Z,25.98
2023-07-09T17:03:30.987Z,25.23
2023-07-09T17:05:59.892Z,26.22
2023-07-09T17:08:28.917Z,26.56
2023-07-09T17:10:59.378Z,26.55
2023-07-09T17:13:29.381Z,26.48
2023-07-09T17:15:58.328Z,26.49
2023-07-09T17:18:30.335Z,30.09
2023-07-09T17:21:04.020Z,34.34
2023-07-09T17:23:33.679Z,26.77
2023-07-09T17:26:02.633Z,24.69
2023-07-09T17:28:32.936Z,24.26
2023-07-09T17:31:02.556Z,25.48
2023-07-09T17:33:32.793Z,25.18
2023-07-09T17:36:01.717Z,25.91
2023-07-09T17:38:35.292Z,28.31
2023-07-09T17:41:04.408Z,31.20
2023-07-09T17:43:33.287Z,29.65
2023-07-09T17:46:03.275Z,31.79
2023-07-09T17:48:37.295Z,29.50
2023-07-09T17:51:06.824Z,28.11
2023-07-09T17:53:37.130Z,30.95
2023-07-09T17:56:18.730Z,27.21
2023-07-09T17:58:48.971Z,33.67
2023-07-09T18:01:17.940Z,26.10
2023-07-09T18:03:48.313Z,28.38
2023-07-09T18:06:18.221Z,34.67
2023-07-09T18:08:47.029Z,31.56
2023-07-09T18:11:29.113Z,30.47
2023-07-09T18:14:01.550Z,31.34
2023-07-09T18:16:30.812Z,34.95
2023-07-09T18:19:04.632Z,29.11
2023-07-09T18:21:33.429Z,34.35
2023-07-09T18:24:05.479Z,33.60
2023-07-09T18:26:34.313Z,34.94
2023-07-09T18:29:08.225Z,29.52
2023-07-09T18:31:37.436Z,35.27
2023-07-09T18:34:10.699Z,34.64
2023-07-09T18:36:39.660Z,32.16
2023-07-09T18:39:09.047Z,31.56
2023-07-09T18:41:37.898Z,34.01
2023-07-09T18:44:20.404Z,32.91
2023-07-09T18:46:56.189Z,33.38
2023-07-09T18:49:26.505Z,33.72
2023-07-09T18:51:55.336Z,32.81
2023-07-09T18:54:24.248Z,30.52
2023-07-09T18:56:53.575Z,31.79
2023-07-09T18:59:23.809Z,31.61
2023-07-09T19:01:52.870Z,31.41
2023-07-09T19:04:23.403Z,31.33
2023-07-09T19:06:55.269Z,33.87
2023-07-09T19:09:26.218Z,37.22
2023-07-09T19:11:55.045Z,35.32
2023-07-09T19:14:24.535Z,35.76
2023-07-09T19:16:57.012Z,35.92
2023-07-09T19:19:26.428Z,37.01
2023-07-09T19:21:58.006Z,36.50
2023-07-09T19:24:28.616Z,36.90
2023-07-09T19:26:58.348Z,37.26
2023-07-09T19:29:28.534Z,38.01
2023-07-09T19:31:59.659Z,38.51
2023-07-09T19:34:30.161Z,37.76
2023-07-09T19:37:02.302Z,36.61
2023-07-09T19:39:33.182Z,35.27
2023-07-09T19:42:07.687Z,35.35
2023-07-09T19:44:36.465Z,36.12
2023-07-09T19:47:06.436Z,36.81
2023-07-09T19:49:35.314Z,36.94
2023-07-09T19:52:11.868Z,37.75
2023-07-09T19:54:40.786Z,37.56
2023-07-09T19:57:09.521Z,36.97
2023-07-09T19:59:39.005Z,37.14
2023-07-09T20:02:20.073Z,38.58
2023-07-09T20:04:51.002Z,36.81
2023-07-09T20:07:21.145Z,36.87
2023-07-09T20:09:49.914Z,41.23
2023-07-09T20:12:21.599Z,39.26
2023-07-09T20:14:54.869Z,36.94
2023-07-09T20:17:23.662Z,36.67
2023-07-09T20:19:52.424Z,36.58
2023-07-09T20:22:24.875Z,36.66
2023-07-09T20:24:53.656Z,37.06
2023-07-09T20:27:23.857Z,37.61
2023-07-09T20:29:52.698Z,38.05
2023-07-09T20:32:22.687Z,37.76
2023-07-09T20:34:55.253Z,38.12
2023-07-09T20:37:26.440Z,38.37
2023-07-09T20:39:55.261Z,39.44
2023-07-09T20:42:25.036Z,38.82
2023-07-09T20:44:56.106Z,38.28
2023-07-09T20:47:25.018Z,38.83
2023-07-09T20:49:53.880Z,38.93
2023-07-09T20:52:25.960Z,39.15
2023-07-09T20:54:56.081Z,39.32
2023-07-09T20:57:24.792Z,40.31
2023-07-09T20:59:53.547Z,39.34
2023-07-09T21:02:23.699Z,39.75
2023-07-09T21:04:55.188Z,40.15
2023-07-09T21:07:24.500Z,40.04
2023-07-09T21:09:53.730Z,40.19
2023-07-09T21:12:23.899Z,40.77
2023-07-09T21:14:52.765Z,40.32
2023-07-09T21:17:24.171Z,40.50
2023-07-09T21:19:53.490Z,40.89
2023-07-09T21:22:24.203Z,41.42
2023-07-09T21:24:55.471Z,41.18
2023-07-09T21:27:25.586Z,42.03
2023-07-09T21:29:54.334Z,42.67
2023-07-09T21:32:29.559Z,43.53
2023-07-09T21:35:00.075Z,43.38
2023-07-09T21:37:28.949Z,42.33
2023-07-09T21:39:57.776Z,42.75
2023-07-09T21:42:28.202Z,43.03
2023-07-09T21:44:56.923Z,43.24
2023-07-09T21:47:27.439Z,43.94
2023-07-09T21:49:56.202Z,43.80
2023-07-09T21:52:30.405Z,44.54
2023-07-09T21:57:32.033Z,43.99
2023-07-09T22:00:03.196Z,44.24
2023-07-09T22:02:32.627Z,44.30
2023-07-09T22:05:01.476Z,44.83
2023-07-09T22:07:32.135Z,44.54
2023-07-09T22:10:00.870Z,44.76
2023-07-09T22:12:30.312Z,45.54
2023-07-09T22:15:07.697Z,46.66
2023-07-09T22:17:36.888Z,45.53
2023-07-09T22:20:08.207Z,45.66
2023-07-09T22:22:37.394Z,45.74
2023-07-09T22:25:10.903Z,46.03
2023-07-09T22:27:39.719Z,45.84
2023-07-09T22:30:11.021Z,45.42
2023-07-09T22:32:40.048Z,47.36
2023-07-09T22:35:13.597Z,48.12
2023-07-09T22:37:43.396Z,47.53
2023-07-09T22:40:21.154Z,47.08
2023-07-09T22:42:51.002Z,46.86
2023-07-09T22:45:22.353Z,47.43
2023-07-09T22:47:54.659Z,48.37
2023-07-09T22:50:28.029Z,48.59
2023-07-09T22:52:56.993Z,48.23
2023-07-09T22:55:44.933Z,49.36
2023-07-09T22:58:15.134Z,48.71
2023-07-09T23:00:48.009Z,48.94
2023-07-09T23:03:18.597Z,48.44
2023-07-09T23:08:41.638Z,49.95
2023-07-09T23:11:14.278Z,49.82
2023-07-09T23:13:43.162Z,48.60
2023-07-09T23:16:14.655Z,48.44
2023-07-09T23:18:45.614Z,49.10
2023-07-09T23:21:14.572Z,49.53
2023-07-09T23:23:43.379Z,48.60
2023-07-09T23:26:13.136Z,48.69
2023-07-09T23:28:42.705Z,48.62
2023-07-09T23:31:25.543Z,48.37
2023-07-09T23:33:54.781Z,48.65
2023-07-09T23:36:23.690Z,49.06
2023-07-09T23:38:52.453Z,49.18
2023-07-09T23:41:27.702Z,49.51
2023-07-09T23:43:58.136Z,49.68
2023-07-09T23:46:31.035Z,50.03
2023-07-09T23:49:09.228Z,51.50
2023-07-09T23:51:39.533Z,51.59
2023-07-09T23:54:10.216Z,52.03
2023-07-09T23:56:39.042Z,50.28
2023-07-09T23:59:08.179Z,50.95
